createdAt,value
2019-02-25T00:00:17.526Z,3.47
2019-02-25T00:01:17.435Z,3.45
2019-02-25T00:02:17.348Z,3.43
2019-02-25T00:03:17.260Z,3.43
2019-02-25T00:04:17.173Z,3.43
2019-02-25T00:05:17.090Z,3.39
2019-02-25T00:06:17.012Z,3.28
2019-02-25T00:07:16.926Z,3.26
2019-02-25T00:08:16.837Z,3.31
2019-02-25T00:09:16.761Z,3.23
2019-02-25T00:10:16.662Z,3.28
2019-02-25T00:11:16.577Z,3.29
2019-02-25T00:12:16.489Z,3.26
2019-02-25T00:13:16.399Z,3.24
2019-02-25T00:14:16.324Z,3.28
2019-02-25T00:15:16.236Z,3.29
2019-02-25T00:16:16.149Z,3.23
2019-02-25T00:17:16.064Z,3.29
2019-02-25T00:18:15.976Z,3.28
2019-02-25T00:19:15.889Z,3.33
2019-02-25T00:20:15.804Z,3.33
2019-02-25T00:21:15.713Z,3.28
2019-02-25T00:22:15.636Z,3.29
2019-02-25T00:23:15.550Z,3.29
2019-02-25T00:24:15.461Z,3.32
2019-02-25T00:25:15.375Z,3.33
2019-02-25T00:26:15.287Z,3.29
2019-02-25T00:27:15.201Z,3.26
2019-02-25T00:28:15.126Z,3.35
2019-02-25T00:29:15.039Z,3.33
2019-02-25T00:30:14.960Z,3.45
2019-02-25T00:31:14.864Z,3.47
2019-02-25T00:32:14.780Z,3.40
2019-02-25T00:33:14.689Z,3.45
2019-02-25T00:34:14.603Z,3.54
2019-02-25T00:35:14.515Z,3.43
2019-02-25T00:36:14.427Z,3.43
2019-02-25T00:37:14.355Z,3.45
2019-02-25T00:38:14.265Z,3.31
2019-02-25T00:39:14.179Z,3.29
2019-02-25T00:40:14.091Z,3.29
2019-02-25T00:41:14.006Z,3.26
2019-02-25T00:42:13.915Z,3.23
2019-02-25T00:43:13.829Z,3.17
2019-02-25T00:44:13.741Z,3.15
2019-02-25T00:45:13.914Z,3.23
2019-02-25T00:46:13.578Z,3.08
2019-02-25T00:47:13.489Z,3.15
2019-02-25T00:48:13.407Z,3.06
2019-02-25T00:49:13.316Z,3.17
2019-02-25T00:50:13.230Z,3.10
2019-02-25T00:51:13.142Z,3.08
2019-02-25T00:52:13.056Z,3.06
2019-02-25T00:53:12.966Z,3.14
2019-02-25T00:54:12.879Z,3.02
2019-02-25T00:55:12.793Z,2.96
2019-02-25T00:56:12.715Z,2.90
2019-02-25T00:57:12.635Z,2.87
2019-02-25T00:58:12.542Z,2.87
2019-02-25T00:59:12.455Z,2.82
2019-02-25T01:00:12.366Z,2.89
2019-02-25T01:01:12.281Z,2.84
2019-02-25T01:02:12.206Z,2.78
2019-02-25T01:03:12.116Z,2.72
2019-02-25T01:04:12.020Z,2.67
2019-02-25T01:05:11.945Z,2.66
2019-02-25T01:06:11.854Z,2.61
2019-02-25T01:07:11.767Z,2.69
2019-02-25T01:08:11.680Z,2.74
2019-02-25T01:09:11.595Z,2.66
2019-02-25T01:10:11.507Z,2.52
2019-02-25T01:11:11.420Z,2.59
2019-02-25T01:12:11.334Z,2.48
2019-02-25T01:13:11.247Z,2.49
2019-02-25T01:14:11.167Z,2.54
2019-02-25T01:15:11.080Z,2.57
2019-02-25T01:16:11.006Z,2.54
2019-02-25T01:17:10.908Z,2.71
2019-02-25T01:18:10.820Z,2.71
2019-02-25T01:19:10.734Z,2.56
2019-02-25T01:20:10.645Z,2.52
2019-02-25T01:21:10.557Z,2.56
2019-02-25T01:22:10.470Z,2.53
2019-02-25T01:23:10.393Z,2.53
2019-02-25T01:24:10.307Z,2.56
2019-02-25T01:25:10.221Z,2.56
2019-02-25T01:26:10.135Z,2.52
2019-02-25T01:27:10.059Z,2.46
2019-02-25T01:28:09.958Z,2.59
2019-02-25T01:29:09.873Z,2.53
2019-02-25T01:30:09.790Z,2.49
2019-02-25T01:31:09.697Z,2.56
2019-02-25T01:32:09.611Z,2.63
2019-02-25T01:33:09.533Z,2.60
2019-02-25T01:34:09.445Z,2.57
2019-02-25T01:35:09.363Z,2.69
2019-02-25T01:36:09.270Z,2.61
2019-02-25T01:37:09.185Z,2.75
2019-02-25T01:38:09.097Z,2.74
2019-02-25T01:39:09.011Z,2.66
2019-02-25T01:40:08.923Z,2.66
2019-02-25T01:41:08.845Z,2.72
2019-02-25T01:42:08.758Z,2.69
2019-02-25T01:43:08.683Z,2.71
2019-02-25T01:44:08.585Z,2.69
2019-02-25T01:45:08.496Z,2.66
2019-02-25T01:46:08.408Z,2.71
2019-02-25T01:47:08.320Z,2.67
2019-02-25T01:48:08.234Z,2.67
2019-02-25T01:49:08.152Z,2.77
2019-02-25T01:50:08.062Z,2.59
2019-02-25T01:51:07.974Z,2.64
2019-02-25T01:52:07.898Z,2.66
2019-02-25T01:53:07.810Z,2.57
2019-02-25T01:54:07.742Z,2.61
2019-02-25T01:55:07.634Z,2.56
2019-02-25T01:56:07.547Z,2.54
2019-02-25T01:57:07.466Z,2.49
2019-02-25T01:58:07.374Z,2.52
2019-02-25T01:59:07.290Z,2.54
2019-02-25T02:00:07.500Z,2.46
2019-02-25T02:01:07.118Z,2.41
2019-02-25T02:02:07.038Z,2.39
2019-02-25T02:03:06.950Z,2.34
2019-02-25T02:04:06.867Z,2.24
2019-02-25T02:05:06.773Z,2.27
2019-02-25T02:06:06.687Z,2.20
2019-02-25T02:07:06.598Z,2.21
2019-02-25T02:08:06.512Z,2.12
2019-02-25T02:09:06.427Z,2.07
2019-02-25T02:10:06.339Z,2.16
2019-02-25T02:11:06.251Z,2.14
2019-02-25T02:12:06.164Z,2.05
2019-02-25T02:13:14.008Z,1.99
2019-02-25T02:14:05.999Z,1.98
2019-02-25T02:15:05.913Z,1.98
2019-02-25T02:16:05.825Z,1.93
2019-02-25T02:17:05.738Z,2.00
2019-02-25T02:18:05.652Z,1.99
2019-02-25T02:19:05.562Z,2.00
2019-02-25T02:20:05.725Z,2.02
2019-02-25T02:21:05.391Z,1.99
2019-02-25T02:22:05.302Z,2.09
2019-02-25T02:23:05.217Z,2.07
2019-02-25T02:24:05.127Z,2.12
2019-02-25T02:25:05.038Z,2.14
2019-02-25T02:26:04.968Z,2.17
2019-02-25T02:27:04.889Z,2.18
2019-02-25T02:28:04.796Z,2.20
2019-02-25T02:29:04.703Z,2.24
2019-02-25T02:30:04.625Z,2.24
2019-02-25T02:31:04.543Z,2.20
2019-02-25T02:32:04.442Z,2.25
2019-02-25T02:33:04.354Z,2.28
2019-02-25T02:34:04.267Z,2.24
2019-02-25T02:35:04.178Z,2.41
2019-02-25T02:36:04.092Z,2.38
2019-02-25T02:37:04.001Z,2.34
2019-02-25T02:38:03.926Z,2.36
2019-02-25T02:39:03.828Z,2.39
2019-02-25T02:40:04.002Z,2.39
2019-02-25T02:41:03.668Z,2.41
2019-02-25T02:42:03.579Z,2.38
2019-02-25T02:43:03.492Z,2.41
2019-02-25T02:44:03.421Z,2.39
2019-02-25T02:45:03.322Z,2.39
2019-02-25T02:46:03.242Z,2.42
2019-02-25T02:47:03.141Z,2.42
2019-02-25T02:48:03.054Z,2.41
2019-02-25T02:49:02.983Z,2.39
2019-02-25T02:50:02.878Z,2.41
2019-02-25T02:51:02.792Z,2.38
2019-02-25T02:52:02.706Z,2.38
2019-02-25T02:53:02.646Z,2.39
2019-02-25T02:54:02.549Z,2.39
2019-02-25T02:55:02.458Z,2.39
2019-02-25T02:56:02.372Z,2.34
2019-02-25T02:57:02.278Z,2.39
2019-02-25T02:58:02.198Z,2.38
2019-02-25T02:59:02.107Z,2.34
2019-02-25T03:00:02.017Z,2.43
2019-02-25T03:01:01.959Z,2.34
2019-02-25T03:02:01.845Z,2.34
2019-02-25T03:03:01.756Z,2.25
2019-02-25T03:04:01.674Z,2.28
2019-02-25T03:05:01.833Z,2.31
2019-02-25T03:06:01.510Z,2.23
2019-02-25T03:07:01.420Z,2.27
2019-02-25T03:08:01.334Z,2.25
2019-02-25T03:09:01.245Z,2.27
2019-02-25T03:10:01.155Z,2.27
2019-02-25T03:11:01.080Z,2.27
2019-02-25T03:12:00.981Z,2.27
2019-02-25T03:13:00.896Z,2.20
2019-02-25T03:14:00.808Z,2.30
2019-02-25T03:15:00.721Z,2.25
2019-02-25T03:16:00.633Z,2.25
2019-02-25T03:17:00.545Z,2.24
2019-02-25T03:18:00.469Z,2.20
2019-02-25T03:19:00.370Z,2.14
2019-02-25T03:20:00.294Z,2.24
2019-02-25T03:21:00.218Z,2.10
2019-02-25T03:22:00.125Z,2.18
2019-02-25T03:23:00.033Z,2.16
2019-02-25T03:23:59.947Z,2.23
2019-02-25T03:24:59.858Z,2.17
2019-02-25T03:25:59.769Z,2.21
2019-02-25T03:26:59.683Z,2.21
2019-02-25T03:27:59.600Z,2.25
2019-02-25T03:28:59.525Z,2.24
2019-02-25T03:29:59.422Z,2.25
2019-02-25T03:30:59.336Z,2.27
2019-02-25T03:31:59.261Z,2.28
2019-02-25T03:32:59.176Z,2.24
2019-02-25T03:33:59.088Z,2.27
2019-02-25T03:34:58.996Z,2.27
2019-02-25T03:35:58.921Z,2.34
2019-02-25T03:36:58.822Z,2.28
2019-02-25T03:37:58.736Z,2.25
2019-02-25T03:38:58.648Z,2.24
2019-02-25T03:39:58.860Z,2.24
2019-02-25T03:40:58.475Z,2.23
2019-02-25T03:41:58.387Z,2.20
2019-02-25T03:42:58.299Z,2.20
2019-02-25T03:43:58.211Z,2.21
2019-02-25T03:44:58.147Z,2.17
2019-02-25T03:45:58.052Z,2.18
2019-02-25T03:46:57.959Z,2.17
2019-02-25T03:47:57.871Z,2.14
2019-02-25T03:48:57.788Z,2.06
2019-02-25T03:49:57.699Z,2.03
2019-02-25T03:50:57.612Z,2.07
2019-02-25T03:51:57.525Z,2.07
2019-02-25T03:52:57.458Z,2.10
2019-02-25T03:53:57.352Z,2.00
2019-02-25T03:54:57.262Z,2.02
2019-02-25T03:55:57.199Z,1.84
2019-02-25T03:56:57.101Z,1.88
2019-02-25T03:57:57.010Z,1.88
2019-02-25T03:58:56.911Z,1.91
2019-02-25T03:59:56.849Z,1.80
2019-02-25T04:00:56.751Z,1.80
2019-02-25T04:01:56.663Z,1.93
2019-02-25T04:02:56.576Z,2.05
2019-02-25T04:03:56.501Z,2.12
2019-02-25T04:04:56.399Z,2.10
2019-02-25T04:05:56.316Z,2.21
2019-02-25T04:06:56.225Z,2.14
2019-02-25T04:07:56.150Z,2.20
2019-02-25T04:08:56.050Z,2.23
2019-02-25T04:09:56.033Z,2.24
2019-02-25T04:10:55.875Z,2.20
2019-02-25T04:11:55.789Z,2.21
2019-02-25T04:12:55.719Z,2.10
2019-02-25T04:13:55.628Z,2.05
2019-02-25T04:14:55.540Z,2.03
2019-02-25T04:15:55.453Z,1.93
2019-02-25T04:16:55.362Z,2.00
2019-02-25T04:17:55.275Z,1.99
2019-02-25T04:18:55.188Z,1.99
2019-02-25T04:19:55.101Z,1.93
2019-02-25T04:20:55.015Z,1.88
2019-02-25T04:21:54.927Z,1.80
2019-02-25T04:22:54.840Z,1.81
2019-02-25T04:23:54.754Z,1.87
2019-02-25T04:24:54.666Z,1.76
2019-02-25T04:25:54.578Z,1.79
2019-02-25T04:26:55.731Z,1.69
2019-02-25T04:27:54.419Z,1.69
2019-02-25T04:28:54.328Z,1.60
2019-02-25T04:29:54.239Z,1.60
2019-02-25T04:30:54.154Z,1.55
2019-02-25T04:31:54.120Z,1.62
2019-02-25T04:32:53.986Z,1.63
2019-02-25T04:33:53.891Z,1.58
2019-02-25T04:34:53.806Z,1.63
2019-02-25T04:35:53.717Z,1.54
2019-02-25T04:36:53.630Z,1.50
2019-02-25T04:37:53.540Z,1.48
2019-02-25T04:38:53.457Z,1.44
2019-02-25T04:39:53.366Z,1.41
2019-02-25T04:40:53.278Z,1.33
2019-02-25T04:41:53.197Z,1.47
2019-02-25T04:42:53.105Z,1.37
2019-02-25T04:43:53.017Z,1.45
2019-02-25T04:44:53.183Z,1.40
2019-02-25T04:45:52.857Z,1.41
2019-02-25T04:46:52.769Z,1.37
2019-02-25T04:47:52.681Z,1.44
2019-02-25T04:48:52.590Z,1.48
2019-02-25T04:49:52.510Z,1.42
2019-02-25T04:50:52.416Z,1.47
2019-02-25T04:51:52.332Z,1.41
2019-02-25T04:52:52.263Z,1.40
2019-02-25T04:53:52.159Z,1.44
2019-02-25T04:54:52.075Z,1.45
2019-02-25T04:55:51.984Z,1.44
2019-02-25T04:56:51.895Z,1.40
2019-02-25T04:57:51.808Z,1.34
2019-02-25T04:58:51.724Z,1.40
2019-02-25T04:59:51.933Z,1.37
2019-02-25T05:00:51.542Z,1.30
2019-02-25T05:01:51.459Z,1.41
2019-02-25T05:02:51.372Z,1.40
2019-02-25T05:03:51.282Z,1.41
2019-02-25T05:04:51.197Z,1.36
2019-02-25T05:05:51.119Z,1.36
2019-02-25T05:06:51.022Z,1.30
2019-02-25T05:07:50.945Z,1.33
2019-02-25T05:08:50.858Z,1.27
2019-02-25T05:09:50.769Z,1.22
2019-02-25T05:10:50.681Z,1.24
2019-02-25T05:11:50.593Z,1.18
2019-02-25T05:12:50.507Z,1.14
2019-02-25T05:13:50.420Z,1.09
2019-02-25T05:14:50.332Z,1.14
2019-02-25T05:15:50.257Z,1.15
2019-02-25T05:16:50.165Z,1.23
2019-02-25T05:17:50.076Z,1.23
2019-02-25T05:18:49.991Z,1.22
2019-02-25T05:19:49.902Z,1.32
2019-02-25T05:20:49.808Z,1.22
2019-02-25T05:21:49.720Z,1.26
2019-02-25T05:22:49.644Z,1.24
2019-02-25T05:23:49.548Z,1.18
2019-02-25T05:24:49.461Z,1.20
2019-02-25T05:25:49.374Z,1.29
2019-02-25T05:26:49.290Z,1.33
2019-02-25T05:27:49.198Z,1.33
2019-02-25T05:28:49.109Z,1.37
2019-02-25T05:29:49.034Z,1.23
2019-02-25T05:30:48.936Z,1.22
2019-02-25T05:31:48.848Z,1.26
2019-02-25T05:32:48.763Z,1.23
2019-02-25T05:33:48.676Z,1.24
2019-02-25T05:34:48.887Z,1.23
2019-02-25T05:35:48.503Z,1.08
2019-02-25T05:36:48.423Z,1.12
2019-02-25T05:37:48.338Z,1.09
2019-02-25T05:38:48.248Z,1.12
2019-02-25T05:39:48.163Z,1.11
2019-02-25T05:40:48.074Z,1.08
2019-02-25T05:41:47.987Z,1.05
2019-02-25T05:42:47.923Z,1.08
2019-02-25T05:43:47.818Z,1.06
2019-02-25T05:44:47.737Z,0.98
2019-02-25T05:45:47.641Z,1.05
2019-02-25T05:46:47.551Z,0.96
2019-02-25T05:47:47.465Z,0.98
2019-02-25T05:48:47.374Z,0.91
2019-02-25T05:49:47.295Z,0.94
2019-02-25T05:50:47.214Z,0.96
2019-02-25T05:51:47.129Z,0.98
2019-02-25T05:52:47.034Z,1.00
2019-02-25T05:53:46.947Z,1.11
2019-02-25T05:54:46.851Z,1.11
2019-02-25T05:55:46.764Z,1.11
2019-02-25T05:56:46.674Z,1.08
2019-02-25T05:57:46.590Z,1.09
2019-02-25T05:58:46.516Z,1.09
2019-02-25T05:59:46.413Z,1.06
2019-02-25T06:00:46.328Z,1.06
2019-02-25T06:01:46.245Z,1.09
2019-02-25T06:02:46.149Z,1.12
2019-02-25T06:03:46.062Z,1.12
2019-02-25T06:04:45.977Z,1.15
2019-02-25T06:05:45.890Z,1.16
2019-02-25T06:06:45.802Z,1.16
2019-02-25T06:07:45.716Z,1.27
2019-02-25T06:08:45.641Z,1.27
2019-02-25T06:09:45.538Z,1.27
2019-02-25T06:10:45.450Z,1.22
2019-02-25T06:11:45.366Z,1.24
2019-02-25T06:12:45.293Z,1.22
2019-02-25T06:13:45.205Z,1.22
2019-02-25T06:14:45.102Z,1.22
2019-02-25T06:15:45.016Z,1.30
2019-02-25T06:16:44.941Z,1.24
2019-02-25T06:17:44.842Z,1.32
2019-02-25T06:18:44.755Z,1.22
2019-02-25T06:19:44.918Z,1.20
2019-02-25T06:20:44.577Z,1.24
2019-02-25T06:21:44.524Z,1.36
2019-02-25T06:22:44.401Z,1.36
2019-02-25T06:23:44.315Z,1.42
2019-02-25T06:24:44.241Z,1.48
2019-02-25T06:25:44.150Z,1.48
2019-02-25T06:26:44.055Z,1.45
2019-02-25T06:27:43.985Z,1.48
2019-02-25T06:28:43.878Z,1.55
2019-02-25T06:29:43.803Z,1.47
2019-02-25T06:30:43.703Z,1.50
2019-02-25T06:31:43.617Z,1.59
2019-02-25T06:32:43.541Z,1.66
2019-02-25T06:33:43.452Z,1.60
2019-02-25T06:34:43.404Z,1.59
2019-02-25T06:35:43.278Z,1.65
2019-02-25T06:36:43.194Z,1.70
2019-02-25T06:37:43.106Z,1.79
2019-02-25T06:38:43.020Z,1.69
2019-02-25T06:39:42.931Z,1.79
2019-02-25T06:40:42.843Z,1.80
2019-02-25T06:41:42.753Z,1.87
2019-02-25T06:42:42.667Z,1.86
2019-02-25T06:43:42.592Z,1.93
2019-02-25T06:44:42.745Z,1.95
2019-02-25T06:45:42.406Z,1.95
2019-02-25T06:46:42.321Z,1.99
2019-02-25T06:47:42.231Z,2.09
2019-02-25T06:48:42.144Z,2.10
2019-02-25T06:49:42.056Z,2.17
2019-02-25T06:50:41.973Z,2.12
2019-02-25T06:51:41.885Z,2.20
2019-02-25T06:52:41.799Z,2.31
2019-02-25T06:53:41.707Z,2.25
2019-02-25T06:54:41.618Z,2.21
2019-02-25T06:55:41.532Z,2.43
2019-02-25T06:56:41.445Z,2.49
2019-02-25T06:57:41.359Z,2.36
2019-02-25T06:58:41.283Z,2.46
2019-02-25T06:59:41.184Z,2.54
2019-02-25T07:00:41.106Z,2.56
2019-02-25T07:01:41.020Z,2.71
2019-02-25T07:02:40.931Z,2.74
2019-02-25T07:03:40.844Z,2.84
2019-02-25T07:04:40.757Z,2.92
2019-02-25T07:05:40.669Z,3.06
2019-02-25T07:06:40.582Z,3.15
2019-02-25T07:07:40.495Z,3.21
2019-02-25T07:08:40.409Z,3.32
2019-02-25T07:09:40.323Z,3.29
2019-02-25T07:10:40.233Z,3.40
2019-02-25T07:11:40.148Z,3.45
2019-02-25T07:12:40.058Z,3.54
2019-02-25T07:13:39.984Z,3.57
2019-02-25T07:14:39.897Z,3.65
2019-02-25T07:15:39.816Z,3.72
2019-02-25T07:16:39.723Z,3.90
2019-02-25T07:17:39.635Z,3.94
2019-02-25T07:18:39.550Z,4.02
2019-02-25T07:19:39.460Z,3.98
2019-02-25T07:20:39.373Z,4.11
2019-02-25T07:21:39.286Z,4.18
2019-02-25T07:22:39.199Z,4.34
2019-02-25T07:23:39.125Z,4.51
2019-02-25T07:24:39.033Z,4.58
2019-02-25T07:25:38.946Z,4.86
2019-02-25T07:26:38.860Z,5.03
2019-02-25T07:27:38.771Z,5.24
2019-02-25T07:28:38.687Z,5.51
2019-02-25T07:29:38.600Z,5.75
2019-02-25T07:30:38.512Z,5.79
2019-02-25T07:31:38.436Z,5.94
2019-02-25T07:32:38.347Z,6.04
2019-02-25T07:33:38.259Z,6.27
2019-02-25T07:34:38.174Z,6.56
2019-02-25T07:35:38.086Z,6.92
2019-02-25T07:36:38.021Z,6.95
2019-02-25T07:37:37.926Z,7.17
2019-02-25T07:38:39.709Z,7.34
2019-02-25T07:39:38.003Z,7.43
2019-02-25T07:40:37.661Z,7.50
2019-02-25T07:41:38.238Z,7.75
2019-02-25T07:42:37.498Z,7.98
2019-02-25T07:43:37.423Z,8.22
2019-02-25T07:44:37.325Z,8.20
2019-02-25T07:45:37.238Z,8.20
2019-02-25T07:46:37.162Z,8.07
2019-02-25T07:47:37.087Z,8.12
2019-02-25T07:48:36.986Z,8.04
2019-02-25T07:49:36.900Z,7.97
2019-02-25T07:50:36.824Z,7.87
2019-02-25T07:51:36.738Z,7.79
2019-02-25T07:52:36.650Z,7.80
2019-02-25T07:53:36.575Z,7.83
2019-02-25T07:54:36.494Z,7.74
2019-02-25T07:55:36.400Z,7.50
2019-02-25T07:56:36.326Z,7.42
2019-02-25T07:57:36.239Z,7.25
2019-02-25T07:58:36.152Z,7.12
2019-02-25T07:59:36.079Z,7.12
2019-02-25T08:00:35.988Z,7.03
2019-02-25T08:01:35.905Z,6.98
2019-02-25T08:02:35.812Z,6.98
2019-02-25T08:03:35.738Z,6.94
2019-02-25T08:04:35.653Z,6.99
2019-02-25T08:05:35.565Z,6.92
2019-02-25T08:06:35.479Z,7.02
2019-02-25T08:07:35.403Z,6.88
2019-02-25T08:08:35.318Z,6.89
2019-02-25T08:09:35.229Z,6.87
2019-02-25T08:10:35.153Z,6.85
2019-02-25T08:11:35.066Z,6.85
2019-02-25T08:12:34.980Z,6.87
2019-02-25T08:13:34.901Z,6.91
2019-02-25T08:14:34.813Z,6.89
2019-02-25T08:15:34.729Z,6.89
2019-02-25T08:16:34.641Z,6.99
2019-02-25T08:17:34.568Z,6.98
2019-02-25T08:18:34.479Z,7.02
2019-02-25T08:19:34.391Z,6.98
2019-02-25T08:20:34.314Z,6.99
2019-02-25T08:21:34.228Z,7.02
2019-02-25T08:22:34.140Z,7.13
2019-02-25T08:23:34.053Z,7.30
2019-02-25T08:24:33.981Z,7.49
2019-02-25T08:25:33.903Z,7.64
2019-02-25T08:26:33.805Z,7.80
2019-02-25T08:27:33.716Z,8.04
2019-02-25T08:28:33.645Z,8.30
2019-02-25T08:29:33.555Z,8.56
2019-02-25T08:30:33.467Z,8.68
2019-02-25T08:31:33.406Z,8.94
2019-02-25T08:32:33.305Z,8.76
2019-02-25T08:33:33.216Z,8.91
2019-02-25T08:34:33.146Z,9.14
2019-02-25T08:35:33.055Z,9.42
2019-02-25T08:36:32.968Z,9.56
2019-02-25T08:37:32.893Z,9.71
2019-02-25T08:38:32.808Z,9.97
2019-02-25T08:39:32.970Z,10.08
2019-02-25T08:40:32.644Z,10.12
2019-02-25T08:41:32.557Z,10.30
2019-02-25T08:42:32.472Z,10.55
2019-02-25T08:43:32.394Z,10.52
2019-02-25T08:44:32.306Z,10.56
2019-02-25T08:45:32.219Z,10.56
2019-02-25T08:46:32.142Z,10.66
2019-02-25T08:47:32.055Z,10.88
2019-02-25T08:48:31.983Z,10.97
2019-02-25T08:49:32.208Z,10.79
2019-02-25T08:50:31.812Z,10.86
2019-02-25T08:51:31.733Z,11.18
2019-02-25T08:52:31.643Z,11.46
2019-02-25T08:53:31.570Z,11.51
2019-02-25T08:54:31.483Z,11.54
2019-02-25T08:55:31.406Z,11.60
2019-02-25T08:56:31.320Z,11.54
2019-02-25T08:57:31.232Z,11.65
2019-02-25T08:58:31.156Z,11.67
2019-02-25T08:59:31.072Z,11.70
2019-02-25T09:00:30.997Z,12.10
2019-02-25T09:01:30.910Z,12.37
2019-02-25T09:02:30.834Z,12.32
2019-02-25T09:03:30.747Z,12.37
2019-02-25T09:04:30.669Z,12.70
2019-02-25T09:05:30.583Z,12.77
2019-02-25T09:06:30.496Z,12.92
2019-02-25T09:07:30.420Z,13.14
2019-02-25T09:08:30.347Z,13.33
2019-02-25T09:09:30.261Z,13.38
2019-02-25T09:10:30.173Z,13.48
2019-02-25T09:11:30.100Z,13.52
2019-02-25T09:12:30.023Z,13.54
2019-02-25T09:13:29.937Z,13.71
2019-02-25T09:14:29.863Z,13.60
2019-02-25T09:15:29.773Z,13.92
2019-02-25T09:16:29.696Z,13.69
2019-02-25T09:17:29.609Z,13.95
2019-02-25T09:18:29.534Z,13.63
2019-02-25T09:19:29.446Z,13.66
2019-02-25T09:20:29.373Z,13.57
2019-02-25T09:21:31.805Z,13.60
2019-02-25T09:22:29.212Z,13.71
2019-02-25T09:23:29.125Z,13.75
2019-02-25T09:24:29.048Z,14.21
2019-02-25T09:25:28.971Z,14.37
2019-02-25T09:26:28.885Z,14.46
2019-02-25T09:27:28.810Z,14.65
2019-02-25T09:28:28.722Z,14.50
2019-02-25T09:29:28.660Z,14.37
2019-02-25T09:30:28.561Z,14.20
2019-02-25T09:31:28.486Z,13.75
2019-02-25T09:32:28.415Z,14.15
2019-02-25T09:33:28.324Z,14.27
2019-02-25T09:34:28.250Z,14.55
2019-02-25T09:35:28.163Z,14.83
2019-02-25T09:36:28.087Z,14.39
2019-02-25T09:37:28.011Z,14.06
2019-02-25T09:38:27.929Z,14.18
2019-02-25T09:39:28.098Z,14.18
2019-02-25T09:40:27.764Z,14.27
2019-02-25T09:41:29.851Z,14.39
2019-02-25T09:42:27.613Z,14.51
2019-02-25T09:43:27.526Z,14.54
2019-02-25T09:44:27.441Z,14.50
2019-02-25T09:45:27.362Z,14.28
2019-02-25T09:46:27.274Z,14.27
2019-02-25T09:47:27.212Z,14.06
2019-02-25T09:48:27.115Z,14.03
2019-02-25T09:49:27.046Z,13.99
2019-02-25T09:50:26.953Z,13.87
2019-02-25T09:51:26.877Z,13.63
2019-02-25T09:52:26.812Z,13.46
2019-02-25T09:53:26.714Z,13.33
2019-02-25T09:54:26.645Z,13.23
2019-02-25T09:55:26.552Z,13.08
2019-02-25T09:56:26.477Z,13.10
2019-02-25T09:57:26.390Z,12.97
2019-02-25T09:58:26.315Z,12.75
2019-02-25T09:59:26.229Z,12.67
2019-02-25T10:00:26.154Z,12.65
2019-02-25T10:01:26.067Z,12.54
2019-02-25T10:02:25.992Z,12.60
2019-02-25T10:03:25.916Z,12.67
2019-02-25T10:04:25.827Z,12.56
2019-02-25T10:05:25.752Z,12.60
2019-02-25T10:06:25.664Z,12.59
2019-02-25T10:07:25.589Z,12.68
2019-02-25T10:08:25.515Z,12.60
2019-02-25T10:09:29.848Z,12.52
2019-02-25T10:10:25.343Z,12.59
2019-02-25T10:11:25.267Z,12.57
2019-02-25T10:12:25.177Z,12.67
2019-02-25T10:13:25.105Z,12.56
2019-02-25T10:14:25.021Z,12.56
2019-02-25T10:15:24.941Z,12.67
2019-02-25T10:16:24.852Z,12.65
2019-02-25T10:17:24.780Z,12.75
2019-02-25T10:18:24.691Z,12.34
2019-02-25T10:19:24.868Z,12.46
2019-02-25T10:20:24.542Z,12.56
2019-02-25T10:21:24.455Z,12.54
2019-02-25T10:22:24.368Z,12.46
2019-02-25T10:23:24.294Z,12.47
2019-02-25T10:24:24.203Z,12.39
2019-02-25T10:25:24.141Z,12.39
2019-02-25T10:26:24.042Z,12.65
2019-02-25T10:27:23.966Z,12.67
2019-02-25T10:28:23.881Z,12.82
2019-02-25T10:29:23.808Z,12.89
2019-02-25T10:30:23.721Z,12.97
2019-02-25T10:31:23.644Z,13.11
2019-02-25T10:32:25.445Z,13.03
2019-02-25T10:33:23.481Z,13.25
2019-02-25T10:34:24.065Z,13.22
2019-02-25T10:35:24.819Z,13.30
2019-02-25T10:36:23.286Z,13.36
2019-02-25T10:37:23.154Z,13.11
2019-02-25T10:38:23.083Z,13.19
2019-02-25T10:39:23.245Z,13.33
2019-02-25T10:40:24.769Z,13.33
2019-02-25T10:41:23.319Z,13.49
2019-02-25T10:42:22.757Z,13.66
2019-02-25T10:43:22.671Z,13.70
2019-02-25T10:44:22.594Z,13.89
2019-02-25T10:45:22.506Z,13.69
2019-02-25T10:46:22.431Z,13.70
2019-02-25T10:47:22.356Z,13.75
2019-02-25T10:48:23.531Z,13.87
2019-02-25T10:49:22.490Z,13.63
2019-02-25T10:50:22.106Z,13.70
2019-02-25T10:51:22.031Z,13.78
2019-02-25T10:52:21.947Z,13.88
2019-02-25T10:53:22.069Z,13.92
2019-02-25T10:54:23.144Z,13.91
2019-02-25T10:55:21.708Z,14.04
2019-02-25T10:56:22.061Z,14.17
2019-02-25T10:57:23.823Z,14.20
2019-02-25T10:58:21.470Z,14.35
2019-02-25T10:59:21.385Z,14.40
2019-02-25T11:00:21.322Z,14.39
2019-02-25T11:01:22.330Z,14.33
2019-02-25T11:02:21.151Z,14.39
2019-02-25T11:03:21.722Z,14.27
2019-02-25T11:04:21.782Z,13.99
2019-02-25T11:05:21.175Z,14.06
2019-02-25T11:06:20.823Z,14.17
2019-02-25T11:07:20.748Z,14.03
2019-02-25T11:08:20.659Z,14.17
2019-02-25T11:09:20.583Z,14.21
2019-02-25T11:10:22.241Z,14.27
2019-02-25T11:11:21.060Z,14.35
2019-02-25T11:12:21.561Z,14.52
2019-02-25T11:13:20.276Z,14.65
2019-02-25T11:14:20.187Z,14.88
2019-02-25T11:15:20.102Z,15.01
2019-02-25T11:16:20.470Z,15.21
2019-02-25T11:17:20.422Z,15.62
2019-02-25T11:18:21.834Z,16.17
2019-02-25T11:19:20.034Z,16.60
2019-02-25T11:20:19.700Z,16.88
2019-02-25T11:21:19.622Z,16.78
2019-02-25T11:22:19.547Z,16.34
2019-02-25T11:23:21.410Z,16.30
2019-02-25T11:24:20.796Z,16.42
2019-02-25T11:25:19.792Z,16.75
2019-02-25T11:26:19.226Z,16.79
2019-02-25T11:27:19.150Z,16.75
2019-02-25T11:28:25.417Z,16.98
2019-02-25T11:29:19.011Z,17.40
2019-02-25T11:30:20.742Z,17.55
2019-02-25T11:31:22.812Z,17.30
2019-02-25T11:32:19.859Z,17.11
2019-02-25T11:33:18.676Z,17.14
2019-02-25T11:34:18.601Z,17.14
2019-02-25T11:35:18.527Z,17.25
2019-02-25T11:36:20.145Z,17.64
2019-02-25T11:37:19.697Z,17.62
2019-02-25T11:38:18.291Z,17.84
2019-02-25T11:39:18.214Z,18.18
2019-02-25T11:40:18.127Z,18.29
2019-02-25T11:41:18.050Z,18.18
2019-02-25T11:42:20.348Z,18.50
2019-02-25T11:43:18.816Z,18.48
2019-02-25T11:44:19.025Z,18.65
2019-02-25T11:45:17.745Z,18.62
2019-02-25T11:46:17.665Z,18.60
2019-02-25T11:47:17.593Z,18.70
2019-02-25T11:48:17.512Z,18.17
2019-02-25T11:49:17.430Z,18.69
2019-02-25T11:50:17.354Z,18.72
2019-02-25T11:51:17.279Z,18.44
2019-02-25T11:52:17.204Z,18.95
2019-02-25T11:53:17.131Z,19.18
2019-02-25T11:54:17.059Z,19.40
2019-02-25T11:55:16.970Z,19.63
2019-02-25T11:56:16.889Z,19.62
2019-02-25T11:57:16.814Z,19.08
2019-02-25T11:58:16.753Z,19.23
2019-02-25T11:59:16.665Z,19.31
2019-02-25T12:00:16.594Z,19.44
2019-02-25T12:01:16.529Z,19.74
2019-02-25T12:02:24.954Z,19.91
2019-02-25T12:03:16.366Z,19.59
2019-02-25T12:04:16.290Z,19.94
2019-02-25T12:05:16.215Z,19.84
2019-02-25T12:06:16.140Z,20.11
2019-02-25T12:07:16.077Z,20.32
2019-02-25T12:08:15.978Z,20.24
2019-02-25T12:09:15.903Z,20.17
2019-02-25T12:10:15.840Z,20.38
2019-02-25T12:11:15.753Z,20.16
2019-02-25T12:12:15.681Z,19.58
2019-02-25T12:13:15.606Z,19.95
2019-02-25T12:14:15.531Z,19.98
2019-02-25T12:15:15.456Z,20.16
2019-02-25T12:16:15.379Z,20.59
2019-02-25T12:17:15.310Z,19.88
2019-02-25T12:18:15.229Z,19.23
2019-02-25T12:19:17.931Z,19.44
2019-02-25T12:20:15.081Z,19.78
2019-02-25T12:21:15.008Z,19.18
2019-02-25T12:22:14.931Z,19.33
2019-02-25T12:23:14.858Z,19.78
2019-02-25T12:24:14.782Z,20.01
2019-02-25T12:25:14.708Z,20.08
2019-02-25T12:26:14.632Z,19.87
2019-02-25T12:27:14.560Z,20.28
2019-02-25T12:28:14.482Z,20.58
2019-02-25T12:29:14.407Z,20.57
2019-02-25T12:30:14.333Z,20.14
2019-02-25T12:31:14.258Z,20.06
2019-02-25T12:32:14.182Z,20.43
2019-02-25T12:33:14.107Z,20.26
2019-02-25T12:34:14.033Z,20.51
2019-02-25T12:35:13.958Z,20.42
2019-02-25T12:36:13.884Z,20.38
2019-02-25T12:37:13.808Z,19.80
2019-02-25T12:38:13.733Z,19.43
2019-02-25T12:39:13.658Z,19.86
2019-02-25T12:40:13.582Z,20.17
2019-02-25T12:41:13.507Z,20.23
2019-02-25T12:42:13.434Z,20.31
2019-02-25T12:43:13.360Z,20.51
2019-02-25T12:44:13.286Z,20.43
2019-02-25T12:45:13.209Z,20.38
2019-02-25T12:46:13.139Z,20.11
2019-02-25T12:47:13.059Z,19.22
2019-02-25T12:48:12.984Z,19.06
2019-02-25T12:49:55.035Z,19.14
2019-02-25T12:50:54.960Z,19.55
2019-02-25T12:51:54.884Z,19.32
2019-02-25T12:52:54.810Z,18.80
2019-02-25T12:53:54.738Z,18.69
2019-02-25T12:54:54.660Z,18.70
2019-02-25T12:55:54.573Z,18.87
2019-02-25T12:56:54.499Z,18.73
2019-02-25T12:57:54.423Z,19.23
2019-02-25T12:58:54.360Z,19.25
2019-02-25T12:59:54.273Z,19.44
2019-02-25T13:00:54.201Z,19.58
2019-02-25T13:01:54.123Z,19.74
2019-02-25T13:02:54.048Z,19.59
2019-02-25T13:03:53.975Z,19.43
2019-02-25T13:04:53.897Z,19.28
2019-02-25T13:05:53.827Z,19.37
2019-02-25T13:06:53.749Z,19.10
2019-02-25T13:07:53.675Z,18.90
2019-02-25T13:08:53.611Z,19.08